sensor_id;sensor_type;location;lat;lon;timestamp;P1;durP1;ratioP1;P2;durP2;ratioP2
79631;SDS011;69108;41.120;16.874;2023-08-21T00:01:39;22.60;;;16.27;;
79631;SDS011;69108;41.120;16.874;2023-08-21T00:04:12;20.58;;;15.85;;
79631;SDS011;69108;41.120;16.874;2023-08-21T00:06:39;21.92;;;15.55;;
79631;SDS011;69108;41.120;16.874;2023-08-21T00:09:07;23.05;;;15.55;;
79631;SDS011;69108;41.120;16.874;2023-08-21T00:11:37;22.80;;;16.50;;
79631;SDS011;69108;41.120;16.874;2023-08-21T00:14:08;23.25;;;16.95;;
79631;SDS011;69108;41.120;16.874;2023-08-21T00:16:53;26.00;;;17.30;;
79631;SDS011;69108;41.120;16.874;2023-08-21T00:21:49;22.38;;;16.30;;
79631;SDS011;69108;41.120;16.874;2023-08-21T00:24:53;22.10;;;16.15;;
79631;SDS011;69108;41.120;16.874;2023-08-21T00:27:21;22.08;;;15.88;;
79631;SDS011;69108;41.120;16.874;2023-08-21T00:29:49;23.45;;;16.63;;
79631;SDS011;69108;41.120;16.874;2023-08-21T00:32:27;22.38;;;15.93;;
79631;SDS011;69108;41.120;16.874;2023-08-21T00:34:55;24.33;;;16.25;;
79631;SDS011;69108;41.120;16.874;2023-08-21T00:37:35;23.50;;;16.40;;
79631;SDS011;69108;41.120;16.874;2023-08-21T00:40:12;19.98;;;15.32;;
79631;SDS011;69108;41.120;16.874;2023-08-21T00:42:42;21.40;;;15.60;;
79631;SDS011;69108;41.120;16.874;2023-08-21T00:45:12;19.25;;;15.48;;
79631;SDS011;69108;41.120;16.874;2023-08-21T00:47:39;21.40;;;15.20;;
79631;SDS011;69108;41.120;16.874;2023-08-21T00:50:15;20.65;;;15.48;;
79631;SDS011;69108;41.120;16.874;2023-08-21T00:53:00;20.80;;;15.30;;
79631;SDS011;69108;41.120;16.874;2023-08-21T00:55:34;20.23;;;14.75;;
79631;SDS011;69108;41.120;16.874;2023-08-21T00:58:06;21.65;;;15.25;;
79631;SDS011;69108;41.120;16.874;2023-08-21T01:00:34;19.30;;;15.07;;
79631;SDS011;69108;41.120;16.874;2023-08-21T01:03:01;22.08;;;14.35;;
79631;SDS011;69108;41.120;16.874;2023-08-21T01:05:29;20.92;;;14.60;;
79631;SDS011;69108;41.120;16.874;2023-08-21T01:07:57;19.90;;;14.52;;
79631;SDS011;69108;41.120;16.874;2023-08-21T01:10:34;20.92;;;15.77;;
79631;SDS011;69108;41.120;16.874;2023-08-21T01:13:11;20.58;;;14.82;;
79631;SDS011;69108;41.120;16.874;2023-08-21T01:15:46;22.42;;;14.38;;
79631;SDS011;69108;41.120;16.874;2023-08-21T01:18:16;19.55;;;14.93;;
79631;SDS011;69108;41.120;16.874;2023-08-21T01:20:43;18.77;;;14.30;;
79631;SDS011;69108;41.120;16.874;2023-08-21T01:23:26;19.30;;;14.85;;
79631;SDS011;69108;41.120;16.874;2023-08-21T01:25:59;20.15;;;15.10;;
79631;SDS011;69108;41.120;16.874;2023-08-21T01:28:27;22.00;;;15.02;;
79631;SDS011;69108;41.120;16.874;2023-08-21T01:30:57;22.20;;;15.27;;
79631;SDS011;69108;41.120;16.874;2023-08-21T01:33:27;21.13;;;15.90;;
79631;SDS011;69108;41.120;16.874;2023-08-21T01:35:57;17.80;;;13.70;;
79631;SDS011;69108;41.120;16.874;2023-08-21T01:38:27;19.50;;;14.50;;
79631;SDS011;69108;41.120;16.874;2023-08-21T01:40:54;20.40;;;15.30;;
79631;SDS011;69108;41.120;16.874;2023-08-21T01:45:48;23.02;;;15.65;;
79631;SDS011;69108;41.120;16.874;2023-08-21T01:50:42;20.05;;;14.32;;
79631;SDS011;69108;41.120;16.874;2023-08-21T01:53:12;23.17;;;14.80;;
79631;SDS011;69108;41.120;16.874;2023-08-21T01:55:43;20.17;;;15.13;;
79631;SDS011;69108;41.120;16.874;2023-08-21T01:58:10;21.02;;;15.63;;
79631;SDS011;69108;41.120;16.874;2023-08-21T02:00:37;18.90;;;14.65;;
79631;SDS011;69108;41.120;16.874;2023-08-21T02:03:07;21.17;;;14.73;;
79631;SDS011;69108;41.120;16.874;2023-08-21T02:05:38;20.58;;;14.95;;
79631;SDS011;69108;41.120;16.874;2023-08-21T02:08:05;20.55;;;14.65;;
79631;SDS011;69108;41.120;16.874;2023-08-21T02:10:47;20.88;;;14.57;;
79631;SDS011;69108;41.120;16.874;2023-08-21T02:13:15;21.33;;;14.98;;
79631;SDS011;69108;41.120;16.874;2023-08-21T02:15:44;20.75;;;14.82;;
79631;SDS011;69108;41.120;16.874;2023-08-21T02:20:38;30.83;;;15.52;;
79631;SDS011;69108;41.120;16.874;2023-08-21T02:23:05;20.45;;;14.93;;
79631;SDS011;69108;41.120;16.874;2023-08-21T02:25:32;22.08;;;14.65;;
79631;SDS011;69108;41.120;16.874;2023-08-21T02:28:02;21.08;;;15.40;;
79631;SDS011;69108;41.120;16.874;2023-08-21T02:30:31;22.20;;;14.65;;
79631;SDS011;69108;41.120;16.874;2023-08-21T02:32:59;21.50;;;14.15;;
79631;SDS011;69108;41.120;16.874;2023-08-21T02:35:26;18.77;;;14.40;;
79631;SDS011;69108;41.120;16.874;2023-08-21T02:40:20;21.98;;;14.50;;
79631;SDS011;69108;41.120;16.874;2023-08-21T02:42:49;24.27;;;14.60;;
79631;SDS011;69108;41.120;16.874;2023-08-21T02:45:20;22.42;;;15.05;;
79631;SDS011;69108;41.120;16.874;2023-08-21T02:47:47;17.63;;;14.15;;
79631;SDS011;69108;41.120;16.874;2023-08-21T02:52:42;20.65;;;14.23;;
79631;SDS011;69108;41.120;16.874;2023-08-21T02:55:09;18.70;;;13.35;;
79631;SDS011;69108;41.120;16.874;2023-08-21T02:57:37;17.98;;;14.52;;
79631;SDS011;69108;41.120;16.874;2023-08-21T03:02:36;21.05;;;14.35;;
79631;SDS011;69108;41.120;16.874;2023-08-21T03:05:08;19.80;;;14.40;;
79631;SDS011;69108;41.120;16.874;2023-08-21T03:07:37;18.17;;;14.55;;
79631;SDS011;69108;41.120;16.874;2023-08-21T03:10:04;21.67;;;13.95;;
79631;SDS011;69108;41.120;16.874;2023-08-21T03:12:34;20.75;;;13.63;;
79631;SDS011;69108;41.120;16.874;2023-08-21T03:15:01;22.90;;;14.60;;
79631;SDS011;69108;41.120;16.874;2023-08-21T03:17:28;20.45;;;14.68;;
79631;SDS011;69108;41.120;16.874;2023-08-21T03:19:57;17.88;;;14.27;;
79631;SDS011;69108;41.120;16.874;2023-08-21T03:22:24;19.95;;;14.23;;
79631;SDS011;69108;41.120;16.874;2023-08-21T03:24:51;20.90;;;13.73;;
79631;SDS011;69108;41.120;16.874;2023-08-21T03:27:18;23.92;;;15.13;;
79631;SDS011;69108;41.120;16.874;2023-08-21T03:29:47;18.70;;;14.73;;
79631;SDS011;69108;41.120;16.874;2023-08-21T03:32:15;18.67;;;14.20;;
79631;SDS011;69108;41.120;16.874;2023-08-21T03:34:43;18.55;;;14.23;;
79631;SDS011;69108;41.120;16.874;2023-08-21T03:37:12;20.20;;;14.63;;
79631;SDS011;69108;41.120;16.874;2023-08-21T03:39:39;19.45;;;14.70;;
79631;SDS011;69108;41.120;16.874;2023-08-21T03:42:06;20.17;;;14.65;;
79631;SDS011;69108;41.120;16.874;2023-08-21T03:44:33;23.20;;;14.88;;
79631;SDS011;69108;41.120;16.874;2023-08-21T03:47:01;20.30;;;14.50;;
79631;SDS011;69108;41.120;16.874;2023-08-21T03:49:28;21.90;;;14.13;;
79631;SDS011;69108;41.120;16.874;2023-08-21T03:51:55;20.83;;;15.25;;
79631;SDS011;69108;41.120;16.874;2023-08-21T03:54:27;21.08;;;15.18;;
79631;SDS011;69108;41.120;16.874;2023-08-21T03:56:54;19.90;;;14.88;;
79631;SDS011;69108;41.120;16.874;2023-08-21T03:59:21;19.55;;;14.63;;
79631;SDS011;69108;41.120;16.874;2023-08-21T04:01:49;22.25;;;15.40;;
79631;SDS011;69108;41.120;16.874;2023-08-21T04:04:16;19.35;;;14.82;;
79631;SDS011;69108;41.120;16.874;2023-08-21T04:09:10;20.20;;;15.65;;
79631;SDS011;69108;41.120;16.874;2023-08-21T04:11:38;20.25;;;14.88;;
79631;SDS011;69108;41.120;16.874;2023-08-21T04:14:06;20.65;;;14.77;;
79631;SDS011;69108;41.120;16.874;2023-08-21T04:16:33;23.70;;;15.10;;
79631;SDS011;69108;41.120;16.874;2023-08-21T04:19:00;22.13;;;14.82;;
79631;SDS011;69108;41.120;16.874;2023-08-21T04:21:28;22.23;;;14.85;;
79631;SDS011;69108;41.120;16.874;2023-08-21T04:23:59;21.45;;;14.85;;
79631;SDS011;69108;41.120;16.874;2023-08-21T04:26:26;26.35;;;16.20;;
79631;SDS011;69108;41.120;16.874;2023-08-21T04:28:59;24.50;;;15.55;;
79631;SDS011;69108;41.120;16.874;2023-08-21T04:31:25;21.55;;;15.95;;
79631;SDS011;69108;41.120;16.874;2023-08-21T04:36:20;23.48;;;15.02;;
79631;SDS011;69108;41.120;16.874;2023-08-21T04:38:48;23.15;;;15.52;;
79631;SDS011;69108;41.120;16.874;2023-08-21T04:41:16;20.77;;;14.55;;
79631;SDS011;69108;41.120;16.874;2023-08-21T04:43:44;38.38;;;17.30;;
79631;SDS011;69108;41.120;16.874;2023-08-21T04:48:40;20.35;;;15.50;;
79631;SDS011;69108;41.120;16.874;2023-08-21T04:51:07;25.85;;;15.52;;
79631;SDS011;69108;41.120;16.874;2023-08-21T04:53:37;19.42;;;14.40;;
79631;SDS011;69108;41.120;16.874;2023-08-21T04:58:31;18.65;;;14.38;;
79631;SDS011;69108;41.120;16.874;2023-08-21T05:00:58;22.38;;;15.63;;
79631;SDS011;69108;41.120;16.874;2023-08-21T05:03:29;27.00;;;16.15;;
79631;SDS011;69108;41.120;16.874;2023-08-21T05:05:56;22.27;;;15.43;;
79631;SDS011;69108;41.120;16.874;2023-08-21T05:08:24;20.60;;;14.70;;
79631;SDS011;69108;41.120;16.874;2023-08-21T05:10:54;24.23;;;15.50;;
79631;SDS011;69108;41.120;16.874;2023-08-21T05:13:22;20.00;;;14.50;;
79631;SDS011;69108;41.120;16.874;2023-08-21T05:15:53;21.33;;;14.65;;
79631;SDS011;69108;41.120;16.874;2023-08-21T05:18:29;19.98;;;14.50;;
79631;SDS011;69108;41.120;16.874;2023-08-21T05:20:57;22.63;;;16.10;;
79631;SDS011;69108;41.120;16.874;2023-08-21T05:23:25;23.63;;;16.15;;
79631;SDS011;69108;41.120;16.874;2023-08-21T05:25:53;23.25;;;16.13;;
79631;SDS011;69108;41.120;16.874;2023-08-21T05:28:27;22.33;;;14.70;;
79631;SDS011;69108;41.120;16.874;2023-08-21T05:30:57;20.90;;;14.50;;
79631;SDS011;69108;41.120;16.874;2023-08-21T05:33:27;21.73;;;15.43;;
79631;SDS011;69108;41.120;16.874;2023-08-21T05:35:57;25.15;;;15.95;;
79631;SDS011;69108;41.120;16.874;2023-08-21T05:38:26;22.02;;;15.18;;
79631;SDS011;69108;41.120;16.874;2023-08-21T05:40:54;21.88;;;15.95;;
79631;SDS011;69108;41.120;16.874;2023-08-21T05:43:23;22.10;;;15.30;;
79631;SDS011;69108;41.120;16.874;2023-08-21T05:46:00;21.50;;;15.73;;
79631;SDS011;69108;41.120;16.874;2023-08-21T05:48:29;21.52;;;15.50;;
79631;SDS011;69108;41.120;16.874;2023-08-21T05:51:12;20.10;;;14.85;;
79631;SDS011;69108;41.120;16.874;2023-08-21T05:53:40;24.80;;;14.85;;
79631;SDS011;69108;41.120;16.874;2023-08-21T05:56:07;20.92;;;14.68;;
79631;SDS011;69108;41.120;16.874;2023-08-21T05:58:37;21.90;;;14.77;;
79631;SDS011;69108;41.120;16.874;2023-08-21T06:01:04;24.70;;;15.23;;
79631;SDS011;69108;41.120;16.874;2023-08-21T06:03:32;21.83;;;15.48;;
79631;SDS011;69108;41.120;16.874;2023-08-21T06:06:02;25.10;;;14.68;;
79631;SDS011;69108;41.120;16.874;2023-08-21T06:08:30;24.20;;;15.13;;
79631;SDS011;69108;41.120;16.874;2023-08-21T06:11:01;26.08;;;15.32;;
79631;SDS011;69108;41.120;16.874;2023-08-21T06:13:29;23.35;;;14.98;;
79631;SDS011;69108;41.120;16.874;2023-08-21T06:15:57;21.98;;;13.90;;
79631;SDS011;69108;41.120;16.874;2023-08-21T06:18:24;20.95;;;14.00;;
79631;SDS011;69108;41.120;16.874;2023-08-21T06:20:51;21.40;;;14.60;;
79631;SDS011;69108;41.120;16.874;2023-08-21T06:23:20;22.50;;;14.35;;
79631;SDS011;69108;41.120;16.874;2023-08-21T06:25:48;24.38;;;14.48;;
79631;SDS011;69108;41.120;16.874;2023-08-21T06:28:15;21.30;;;14.90;;
79631;SDS011;69108;41.120;16.874;2023-08-21T06:30:42;24.13;;;15.32;;
79631;SDS011;69108;41.120;16.874;2023-08-21T06:33:09;21.05;;;14.73;;
79631;SDS011;69108;41.120;16.874;2023-08-21T06:35:36;23.30;;;15.85;;
79631;SDS011;69108;41.120;16.874;2023-08-21T06:38:03;22.38;;;14.48;;
79631;SDS011;69108;41.120;16.874;2023-08-21T06:40:32;18.25;;;13.32;;
79631;SDS011;69108;41.120;16.874;2023-08-21T06:43:00;22.58;;;15.85;;
79631;SDS011;69108;41.120;16.874;2023-08-21T06:45:28;22.55;;;15.13;;
79631;SDS011;69108;41.120;16.874;2023-08-21T06:47:57;25.20;;;14.05;;
79631;SDS011;69108;41.120;16.874;2023-08-21T06:50:27;21.13;;;14.02;;
79631;SDS011;69108;41.120;16.874;2023-08-21T06:52:54;22.67;;;15.18;;
79631;SDS011;69108;41.120;16.874;2023-08-21T06:55:21;22.77;;;14.95;;
79631;SDS011;69108;41.120;16.874;2023-08-21T06:57:50;23.23;;;15.10;;
79631;SDS011;69108;41.120;16.874;2023-08-21T07:00:17;23.73;;;14.32;;
79631;SDS011;69108;41.120;16.874;2023-08-21T07:02:44;22.83;;;14.57;;
79631;SDS011;69108;41.120;16.874;2023-08-21T07:05:11;19.63;;;13.98;;
79631;SDS011;69108;41.120;16.874;2023-08-21T07:07:39;19.02;;;13.23;;
79631;SDS011;69108;41.120;16.874;2023-08-21T07:10:06;23.33;;;14.90;;
79631;SDS011;69108;41.120;16.874;2023-08-21T07:12:35;20.13;;;14.75;;
79631;SDS011;69108;41.120;16.874;2023-08-21T07:15:06;21.05;;;14.55;;
79631;SDS011;69108;41.120;16.874;2023-08-21T07:17:34;19.70;;;14.30;;
79631;SDS011;69108;41.120;16.874;2023-08-21T07:20:01;19.38;;;14.80;;
79631;SDS011;69108;41.120;16.874;2023-08-21T07:22:29;20.75;;;14.57;;
79631;SDS011;69108;41.120;16.874;2023-08-21T07:27:23;17.58;;;13.57;;
79631;SDS011;69108;41.120;16.874;2023-08-21T07:29:50;17.67;;;13.82;;
79631;SDS011;69108;41.120;16.874;2023-08-21T07:32:18;16.98;;;14.05;;
79631;SDS011;69108;41.120;16.874;2023-08-21T07:34:46;20.38;;;13.85;;
79631;SDS011;69108;41.120;16.874;2023-08-21T07:37:13;20.55;;;14.70;;
79631;SDS011;69108;41.120;16.874;2023-08-21T07:39:40;24.58;;;15.77;;
79631;SDS011;69108;41.120;16.874;2023-08-21T07:42:07;25.08;;;15.15;;
79631;SDS011;69108;41.120;16.874;2023-08-21T07:44:34;17.30;;;14.23;;
79631;SDS011;69108;41.120;16.874;2023-08-21T07:47:01;21.20;;;15.50;;
79631;SDS011;69108;41.120;16.874;2023-08-21T07:49:30;25.25;;;15.77;;
79631;SDS011;69108;41.120;16.874;2023-08-21T07:51:57;22.88;;;14.70;;
79631;SDS011;69108;41.120;16.874;2023-08-21T07:54:24;22.08;;;14.77;;
79631;SDS011;69108;41.120;16.874;2023-08-21T07:56:51;23.60;;;14.90;;
79631;SDS011;69108;41.120;16.874;2023-08-21T07:59:19;20.52;;;15.55;;
79631;SDS011;69108;41.120;16.874;2023-08-21T08:01:46;22.70;;;14.93;;
79631;SDS011;69108;41.120;16.874;2023-08-21T08:04:13;19.98;;;14.18;;
79631;SDS011;69108;41.120;16.874;2023-08-21T08:06:42;22.92;;;15.07;;
79631;SDS011;69108;41.120;16.874;2023-08-21T08:09:09;21.92;;;14.77;;
79631;SDS011;69108;41.120;16.874;2023-08-21T08:14:04;16.77;;;13.00;;
79631;SDS011;69108;41.120;16.874;2023-08-21T08:16:31;23.70;;;16.30;;
79631;SDS011;69108;41.120;16.874;2023-08-21T08:18:59;19.65;;;15.43;;
79631;SDS011;69108;41.120;16.874;2023-08-21T08:21:27;21.48;;;14.60;;
79631;SDS011;69108;41.120;16.874;2023-08-21T08:23:57;19.80;;;13.77;;
79631;SDS011;69108;41.120;16.874;2023-08-21T08:26:24;17.05;;;13.73;;
79631;SDS011;69108;41.120;16.874;2023-08-21T08:28:51;17.95;;;12.85;;
79631;SDS011;69108;41.120;16.874;2023-08-21T08:31:18;17.45;;;12.93;;
79631;SDS011;69108;41.120;16.874;2023-08-21T08:33:46;19.92;;;13.60;;
79631;SDS011;69108;41.120;16.874;2023-08-21T08:36:14;17.52;;;13.43;;
79631;SDS011;69108;41.120;16.874;2023-08-21T08:38:42;16.27;;;13.00;;
79631;SDS011;69108;41.120;16.874;2023-08-21T08:41:14;15.18;;;12.40;;
79631;SDS011;69108;41.120;16.874;2023-08-21T08:43:46;17.00;;;12.35;;
79631;SDS011;69108;41.120;16.874;2023-08-21T08:46:14;14.93;;;12.07;;
79631;SDS011;69108;41.120;16.874;2023-08-21T08:48:41;15.70;;;12.35;;
79631;SDS011;69108;41.120;16.874;2023-08-21T08:51:08;13.95;;;12.45;;
79631;SDS011;69108;41.120;16.874;2023-08-21T08:53:36;17.98;;;13.50;;
79631;SDS011;69108;41.120;16.874;2023-08-21T08:56:03;16.60;;;12.13;;
79631;SDS011;69108;41.120;16.874;2023-08-21T08:58:32;17.75;;;11.15;;
79631;SDS011;69108;41.120;16.874;2023-08-21T09:00:59;14.07;;;12.20;;
79631;SDS011;69108;41.120;16.874;2023-08-21T09:03:27;15.82;;;11.98;;
79631;SDS011;69108;41.120;16.874;2023-08-21T09:05:54;18.40;;;13.07;;
79631;SDS011;69108;41.120;16.874;2023-08-21T09:08:25;16.92;;;12.35;;
79631;SDS011;69108;41.120;16.874;2023-08-21T09:10:52;18.00;;;12.18;;
79631;SDS011;69108;41.120;16.874;2023-08-21T09:13:20;14.60;;;11.85;;
79631;SDS011;69108;41.120;16.874;2023-08-21T09:15:52;17.23;;;11.85;;
79631;SDS011;69108;41.120;16.874;2023-08-21T09:18:20;20.35;;;13.05;;
79631;SDS011;69108;41.120;16.874;2023-08-21T09:20:47;18.70;;;13.07;;
79631;SDS011;69108;41.120;16.874;2023-08-21T09:23:14;16.98;;;11.88;;
79631;SDS011;69108;41.120;16.874;2023-08-21T09:25:42;19.25;;;12.50;;
79631;SDS011;69108;41.120;16.874;2023-08-21T09:28:12;16.25;;;13.32;;
79631;SDS011;69108;41.120;16.874;2023-08-21T09:30:45;15.48;;;11.55;;
79631;SDS011;69108;41.120;16.874;2023-08-21T09:33:14;15.02;;;12.30;;
79631;SDS011;69108;41.120;16.874;2023-08-21T09:35:43;17.42;;;12.57;;
79631;SDS011;69108;41.120;16.874;2023-08-21T09:38:10;17.65;;;12.20;;
79631;SDS011;69108;41.120;16.874;2023-08-21T09:40:41;16.02;;;11.68;;
79631;SDS011;69108;41.120;16.874;2023-08-21T09:43:11;18.17;;;13.73;;
79631;SDS011;69108;41.120;16.874;2023-08-21T09:45:38;17.95;;;12.63;;
79631;SDS011;69108;41.120;16.874;2023-08-21T09:48:05;15.40;;;12.82;;
79631;SDS011;69108;41.120;16.874;2023-08-21T09:50:34;15.55;;;12.38;;
79631;SDS011;69108;41.120;16.874;2023-08-21T09:53:03;16.40;;;12.75;;
79631;SDS011;69108;41.120;16.874;2023-08-21T09:55:33;17.25;;;11.63;;
79631;SDS011;69108;41.120;16.874;2023-08-21T09:58:00;15.13;;;11.30;;
79631;SDS011;69108;41.120;16.874;2023-08-21T10:00:29;16.27;;;12.77;;
79631;SDS011;69108;41.120;16.874;2023-08-21T10:02:59;17.65;;;13.60;;
79631;SDS011;69108;41.120;16.874;2023-08-21T10:05:28;19.52;;;11.38;;
79631;SDS011;69108;41.120;16.874;2023-08-21T10:08:02;15.85;;;11.75;;
79631;SDS011;69108;41.120;16.874;2023-08-21T10:10:32;14.98;;;11.88;;
79631;SDS011;69108;41.120;16.874;2023-08-21T10:13:00;17.67;;;13.63;;
79631;SDS011;69108;41.120;16.874;2023-08-21T10:15:28;15.48;;;12.35;;
79631;SDS011;69108;41.120;16.874;2023-08-21T10:17:56;17.55;;;11.75;;
79631;SDS011;69108;41.120;16.874;2023-08-21T10:20:24;15.43;;;12.80;;
79631;SDS011;69108;41.120;16.874;2023-08-21T10:22:53;16.02;;;12.63;;
79631;SDS011;69108;41.120;16.874;2023-08-21T10:25:25;13.73;;;11.55;;
79631;SDS011;69108;41.120;16.874;2023-08-21T10:27:52;16.77;;;11.60;;
79631;SDS011;69108;41.120;16.874;2023-08-21T10:30:21;15.57;;;11.88;;
79631;SDS011;69108;41.120;16.874;2023-08-21T10:32:49;14.77;;;12.38;;
79631;SDS011;69108;41.120;16.874;2023-08-21T10:35:18;15.80;;;11.82;;
79631;SDS011;69108;41.120;16.874;2023-08-21T10:38:08;14.57;;;12.60;;
79631;SDS011;69108;41.120;16.874;2023-08-21T10:40:38;13.82;;;11.80;;
79631;SDS011;69108;41.120;16.874;2023-08-21T10:46:08;17.20;;;12.55;;
79631;SDS011;69108;41.120;16.874;2023-08-21T10:48:36;16.20;;;12.10;;
79631;SDS011;69108;41.120;16.874;2023-08-21T10:51:04;20.90;;;13.40;;
79631;SDS011;69108;41.120;16.874;2023-08-21T10:53:34;18.95;;;14.05;;
79631;SDS011;69108;41.120;16.874;2023-08-21T10:56:06;19.77;;;14.13;;
79631;SDS011;69108;41.120;16.874;2023-08-21T10:58:38;21.30;;;14.60;;
79631;SDS011;69108;41.120;16.874;2023-08-21T11:01:07;21.33;;;13.32;;
79631;SDS011;69108;41.120;16.874;2023-08-21T11:03:34;19.02;;;14.30;;
79631;SDS011;69108;41.120;16.874;2023-08-21T11:06:02;16.50;;;14.77;;
79631;SDS011;69108;41.120;16.874;2023-08-21T11:08:30;19.88;;;14.55;;
79631;SDS011;69108;41.120;16.874;2023-08-21T11:10:58;19.60;;;14.00;;
79631;SDS011;69108;41.120;16.874;2023-08-21T11:13:26;20.95;;;14.82;;
79631;SDS011;69108;41.120;16.874;2023-08-21T11:15:58;18.13;;;15.98;;
79631;SDS011;69108;41.120;16.874;2023-08-21T11:18:32;25.40;;;14.45;;
79631;SDS011;69108;41.120;16.874;2023-08-21T11:21:04;23.55;;;14.40;;
79631;SDS011;69108;41.120;16.874;2023-08-21T11:23:33;18.98;;;14.13;;
79631;SDS011;69108;41.120;16.874;2023-08-21T11:26:01;17.98;;;13.82;;
79631;SDS011;69108;41.120;16.874;2023-08-21T11:28:30;18.50;;;13.75;;
79631;SDS011;69108;41.120;16.874;2023-08-21T11:30:59;17.80;;;13.65;;
79631;SDS011;69108;41.120;16.874;2023-08-21T11:33:28;19.00;;;15.20;;
79631;SDS011;69108;41.120;16.874;2023-08-21T11:35:55;20.08;;;13.93;;
79631;SDS011;69108;41.120;16.874;2023-08-21T11:38:26;22.63;;;14.48;;
79631;SDS011;69108;41.120;16.874;2023-08-21T11:40:54;24.00;;;14.25;;
79631;SDS011;69108;41.120;16.874;2023-08-21T11:43:23;20.65;;;14.13;;
79631;SDS011;69108;41.120;16.874;2023-08-21T11:46:02;20.70;;;13.23;;
79631;SDS011;69108;41.120;16.874;2023-08-21T11:48:29;20.73;;;14.60;;
79631;SDS011;69108;41.120;16.874;2023-08-21T11:53:30;19.77;;;13.70;;
79631;SDS011;69108;41.120;16.874;2023-08-21T11:56:03;20.90;;;14.45;;
79631;SDS011;69108;41.120;16.874;2023-08-21T11:58:38;17.55;;;13.32;;
79631;SDS011;69108;41.120;16.874;2023-08-21T12:01:06;20.00;;;14.10;;
79631;SDS011;69108;41.120;16.874;2023-08-21T12:03:36;16.02;;;13.25;;
79631;SDS011;69108;41.120;16.874;2023-08-21T12:06:06;17.25;;;13.27;;
79631;SDS011;69108;41.120;16.874;2023-08-21T12:08:33;16.63;;;12.63;;
79631;SDS011;69108;41.120;16.874;2023-08-21T12:11:01;19.30;;;12.68;;
79631;SDS011;69108;41.120;16.874;2023-08-21T12:13:28;22.20;;;14.18;;
79631;SDS011;69108;41.120;16.874;2023-08-21T12:15:57;17.58;;;13.50;;
79631;SDS011;69108;41.120;16.874;2023-08-21T12:18:23;21.67;;;13.63;;
79631;SDS011;69108;41.120;16.874;2023-08-21T12:20:50;18.70;;;13.48;;
79631;SDS011;69108;41.120;16.874;2023-08-21T12:25:44;20.85;;;13.18;;
79631;SDS011;69108;41.120;16.874;2023-08-21T12:30:39;18.80;;;12.10;;
79631;SDS011;69108;41.120;16.874;2023-08-21T12:33:07;22.15;;;12.70;;
79631;SDS011;69108;41.120;16.874;2023-08-21T12:35:34;15.45;;;12.70;;
79631;SDS011;69108;41.120;16.874;2023-08-21T12:38:09;19.65;;;13.00;;
79631;SDS011;69108;41.120;16.874;2023-08-21T12:40:37;19.75;;;13.18;;
79631;SDS011;69108;41.120;16.874;2023-08-21T12:45:32;17.70;;;12.82;;
79631;SDS011;69108;41.120;16.874;2023-08-21T12:47:59;17.05;;;12.93;;
79631;SDS011;69108;41.120;16.874;2023-08-21T12:50:27;18.52;;;12.70;;
79631;SDS011;69108;41.120;16.874;2023-08-21T12:52:54;16.45;;;13.18;;
79631;SDS011;69108;41.120;16.874;2023-08-21T12:55:21;19.23;;;13.52;;
79631;SDS011;69108;41.120;16.874;2023-08-21T12:57:48;22.77;;;13.68;;
79631;SDS011;69108;41.120;16.874;2023-08-21T13:00:15;16.70;;;12.98;;
79631;SDS011;69108;41.120;16.874;2023-08-21T13:02:43;17.63;;;12.02;;
79631;SDS011;69108;41.120;16.874;2023-08-21T13:07:39;17.27;;;11.95;;
79631;SDS011;69108;41.120;16.874;2023-08-21T13:10:06;18.48;;;12.07;;
79631;SDS011;69108;41.120;16.874;2023-08-21T13:12:34;16.08;;;12.15;;
79631;SDS011;69108;41.120;16.874;2023-08-21T13:15:02;16.88;;;11.90;;
79631;SDS011;69108;41.120;16.874;2023-08-21T13:17:33;16.17;;;11.95;;
79631;SDS011;69108;41.120;16.874;2023-08-21T13:20:00;18.05;;;12.02;;
79631;SDS011;69108;41.120;16.874;2023-08-21T13:22:27;17.85;;;12.70;;
79631;SDS011;69108;41.120;16.874;2023-08-21T13:24:56;16.27;;;12.88;;
79631;SDS011;69108;41.120;16.874;2023-08-21T13:27:23;21.42;;;13.48;;
79631;SDS011;69108;41.120;16.874;2023-08-21T13:29:50;15.95;;;12.70;;
79631;SDS011;69108;41.120;16.874;2023-08-21T13:32:17;18.50;;;13.00;;
79631;SDS011;69108;41.120;16.874;2023-08-21T13:34:44;17.98;;;13.02;;
79631;SDS011;69108;41.120;16.874;2023-08-21T13:37:11;19.08;;;12.82;;
79631;SDS011;69108;41.120;16.874;2023-08-21T13:39:39;17.90;;;12.77;;
79631;SDS011;69108;41.120;16.874;2023-08-21T13:44:34;17.48;;;11.98;;
79631;SDS011;69108;41.120;16.874;2023-08-21T13:47:01;20.90;;;13.13;;
79631;SDS011;69108;41.120;16.874;2023-08-21T13:49:29;19.98;;;13.38;;
79631;SDS011;69108;41.120;16.874;2023-08-21T13:51:57;17.13;;;13.18;;
79631;SDS011;69108;41.120;16.874;2023-08-21T13:54:26;16.55;;;12.85;;
79631;SDS011;69108;41.120;16.874;2023-08-21T13:56:53;17.95;;;13.32;;
79631;SDS011;69108;41.120;16.874;2023-08-21T13:59:21;17.00;;;13.05;;
79631;SDS011;69108;41.120;16.874;2023-08-21T14:01:48;16.58;;;13.15;;
79631;SDS011;69108;41.120;16.874;2023-08-21T14:06:42;18.80;;;13.35;;
79631;SDS011;69108;41.120;16.874;2023-08-21T14:11:36;16.38;;;13.55;;
79631;SDS011;69108;41.120;16.874;2023-08-21T14:14:03;16.90;;;13.18;;
79631;SDS011;69108;41.120;16.874;2023-08-21T14:19:00;17.17;;;13.75;;
79631;SDS011;69108;41.120;16.874;2023-08-21T14:21:29;17.50;;;13.50;;
79631;SDS011;69108;41.120;16.874;2023-08-21T14:23:56;19.55;;;14.13;;
79631;SDS011;69108;41.120;16.874;2023-08-21T14:26:23;21.27;;;13.75;;
79631;SDS011;69108;41.120;16.874;2023-08-21T14:28:50;19.02;;;14.63;;
79631;SDS011;69108;41.120;16.874;2023-08-21T14:31:20;19.73;;;14.38;;
79631;SDS011;69108;41.120;16.874;2023-08-21T14:33:49;20.63;;;13.93;;
79631;SDS011;69108;41.120;16.874;2023-08-21T14:36:16;19.00;;;14.18;;
79631;SDS011;69108;41.120;16.874;2023-08-21T14:38:44;23.58;;;14.65;;
79631;SDS011;69108;41.120;16.874;2023-08-21T14:41:13;18.40;;;14.55;;
79631;SDS011;69108;41.120;16.874;2023-08-21T14:43:42;23.30;;;15.10;;
79631;SDS011;69108;41.120;16.874;2023-08-21T14:48:36;19.45;;;13.50;;
79631;SDS011;69108;41.120;16.874;2023-08-21T14:51:05;20.23;;;15.35;;
79631;SDS011;69108;41.120;16.874;2023-08-21T14:53:32;20.25;;;15.18;;
79631;SDS011;69108;41.120;16.874;2023-08-21T14:58:26;20.75;;;14.30;;
79631;SDS011;69108;41.120;16.874;2023-08-21T15:00:55;25.08;;;14.85;;
79631;SDS011;69108;41.120;16.874;2023-08-21T15:03:23;21.17;;;15.45;;
79631;SDS011;69108;41.120;16.874;2023-08-21T15:05:53;22.33;;;14.32;;
79631;SDS011;69108;41.120;16.874;2023-08-21T15:08:23;21.80;;;15.77;;
79631;SDS011;69108;41.120;16.874;2023-08-21T15:10:50;22.60;;;14.50;;
79631;SDS011;69108;41.120;16.874;2023-08-21T15:13:17;20.23;;;14.73;;
79631;SDS011;69108;41.120;16.874;2023-08-21T15:15:44;20.38;;;15.02;;
79631;SDS011;69108;41.120;16.874;2023-08-21T15:18:11;19.60;;;14.60;;
79631;SDS011;69108;41.120;16.874;2023-08-21T15:20:39;20.85;;;14.98;;